Portada
METAR-TAF:

METAR-TAF

Aeroports :

Ambon, Indonèsia

latitud: 03-42S, longitud: 128-05E, altitud: 12 m

Observació

L'informe es va fer fa 29 minuts, a les 02:00 UTC
Vent 5 kt del Sud-Est, variant entre Est i Sud/Sud-Oest
Temperatura 35°C
Humitat 56%
Pressió 1008 hPa
Visibilitat 10 km o més
Núvols disperses a una alçada de 1800 ft

METAR: WAPP 050200Z 13005KT 090V210 9999 SCT018 35/25 Q1008 NOSIG

Hora: 11:29 (02:29 UTC)

Pronòstic

L'informe es va fer fa 3 hores i 29 minuts, a les 23:00 UTC
Pronòstic vàlid del 05 a les 00 UTC al 05 a les 24 UTC
Vent 8 kt del Sud/Sud-Oest
Visibilitat: 9000 m
Escasses núvols a una alçada de 1600 ft, Cumulonimbus.
Núvols disperses a una alçada de 1700 ft
Temporalment
l' 05 a les 07 UTC al 05 a les 10 UTC
Visibilitat: 4000 m
pluja
Evolucionant progressivament
l' 05 a les 12 UTC al 05 a les 14 UTC
Vent 5 kt del Nord/Nord-Oest

TAF: WAPP 042300Z 0500/0524 20008KT 9000 FEW016CB SCT017 TEMPO 0507/0510 4000 RA BECMG 0512/0514 34005KT

Observacions i pronòstics meteorològics de més de 4000 aeroports (METAR i TAF).

Les estacions disponibles són els punts grocs i vermells al mapa.

Posi el ratolí al punt desitjat per veure el nom de l'estació.

Feu clic per veure les observacions i els pronòstics meteorològics.

Per canviar el mapa: feu clic els botons verds amb una creu de color negre per apropar; al botó verd amb un guió per allunyar la imatge; o en les fletxes verdes per a mapes adjacents.


METAR-TAF: